CheckWX is a tool to help pilots better visualize weather data.  It is not intended as a substitute for an official pre-flight weather briefing.

19:56:22 UTC

KBID METAR
Block Island State Airport
Block Island, Rhode Island, USA
Current

15 mins ago

KBID 251941Z AUTO 17021G26KT 1SM +TSRA BR BKN002 OVC010 19/19 A2988 RMK AO2 PK WND 17026/1941 LTG DSNT SE AND S TSE29B30 P0045
Observed
Jun-25 @ 19:41 UTC
Wind
  • 170° at 21 KTS
  • Gusting to 26 KTS
Visibility
1 SM
Flight Rules
LIFR
Conditions
Heavy Thunderstorm, Heavy Rain, Mist
Cloud Levels
  • Broken at 200' AGL
  • Overcast at 1,000' AGL
Temperature
19°C / 66°F
Dewpoint
19°C / 66°F
Humidity
100%
Altimeter
29.88" Hg
Pressure
1011.82 hPa
Current Rain
0.45"
Previous

26 mins ago

KBID 251930Z AUTO 17017G23KT 1 1/4SM +TSRA BR BKN002 BKN010 OVC034 19/19 A2989 RMK AO2 LTG DSNT S TSE29B30 P0020
Observed
Jun-25 @ 19:30 UTC
Wind
  • 170° at 17 KTS
  • Gusting to 23 KTS
Visibility
1 1/4 SM
Flight Rules
LIFR
Conditions
Heavy Thunderstorm, Heavy Rain, Mist
Cloud Levels
  • Broken at 200' AGL
  • Broken at 1,000' AGL
  • Overcast at 3,400' AGL
Temperature
19°C / 66°F
Dewpoint
19°C / 66°F
Humidity
100%
Altimeter
29.89" Hg
Pressure
1012.22 hPa
Current Rain
0.2"
Previous

36 mins ago

KBID 251920Z AUTO 16016G22KT 2 1/2SM TSRA BR SCT008 BKN014 OVC046 19/19 A2990 RMK AO2 LTG DSNT S AND SW P0008
Observed
Jun-25 @ 19:20 UTC
Wind
  • 160° at 16 KTS
  • Gusting to 22 KTS
Visibility
2 1/2 SM
Flight Rules
IFR
Conditions
Thunderstorm, Rain, Mist
Cloud Levels
  • Scattered at 800' AGL
  • Broken at 1,400' AGL
  • Overcast at 4,600' AGL
Temperature
19°C / 66°F
Dewpoint
19°C / 66°F
Humidity
100%
Altimeter
29.9" Hg
Pressure
1012.52 hPa
Current Rain
0.08"